sensor_id;sensor_type;location;lat;lon;timestamp;temperature;humidity
20139;DHT22;10230;51.502;10.800;2023-04-10T00:00:17;7.30;99.90
20139;DHT22;10230;51.502;10.800;2023-04-10T00:02:43;7.20;99.90
20139;DHT22;10230;51.502;10.800;2023-04-10T00:05:10;7.20;99.90
20139;DHT22;10230;51.502;10.800;2023-04-10T00:07:35;7.20;99.90
20139;DHT22;10230;51.502;10.800;2023-04-10T00:10:01;7.20;99.90
20139;DHT22;10230;51.502;10.800;2023-04-10T00:12:26;7.20;99.90
20139;DHT22;10230;51.502;10.800;2023-04-10T00:14:54;7.10;99.90
20139;DHT22;10230;51.502;10.800;2023-04-10T00:17:20;7.10;99.90
20139;DHT22;10230;51.502;10.800;2023-04-10T00:19:46;7.10;99.90
20139;DHT22;10230;51.502;10.800;2023-04-10T00:22:12;7.10;99.90
20139;DHT22;10230;51.502;10.800;2023-04-10T00:24:38;7.00;99.90
20139;DHT22;10230;51.502;10.800;2023-04-10T00:27:07;7.00;99.90
20139;DHT22;10230;51.502;10.800;2023-04-10T00:29:33;6.90;99.90
20139;DHT22;10230;51.502;10.800;2023-04-10T00:31:58;6.90;99.90
20139;DHT22;10230;51.502;10.800;2023-04-10T00:34:24;6.90;99.90
20139;DHT22;10230;51.502;10.800;2023-04-10T00:36:50;6.80;99.90
20139;DHT22;10230;51.502;10.800;2023-04-10T00:39:15;6.80;99.90
20139;DHT22;10230;51.502;10.800;2023-04-10T00:41:41;6.80;99.90
20139;DHT22;10230;51.502;10.800;2023-04-10T00:44:07;6.80;99.90
20139;DHT22;10230;51.502;10.800;2023-04-10T00:46:33;6.80;99.90
20139;DHT22;10230;51.502;10.800;2023-04-10T00:49:01;6.70;99.90
20139;DHT22;10230;51.502;10.800;2023-04-10T00:51:29;6.70;99.90
20139;DHT22;10230;51.502;10.800;2023-04-10T00:53:59;6.70;99.90
20139;DHT22;10230;51.502;10.800;2023-04-10T00:56:27;6.60;99.90
20139;DHT22;10230;51.502;10.800;2023-04-10T00:58:54;6.60;99.90
20139;DHT22;10230;51.502;10.800;2023-04-10T01:01:21;6.60;99.90
20139;DHT22;10230;51.502;10.800;2023-04-10T01:03:47;6.60;99.90
20139;DHT22;10230;51.502;10.800;2023-04-10T01:15:24;6.60;99.90
20139;DHT22;10230;51.502;10.800;2023-04-10T01:20:37;6.50;99.90
20139;DHT22;10230;51.502;10.800;2023-04-10T01:29:47;6.40;99.90
20139;DHT22;10230;51.502;10.800;2023-04-10T01:32:31;6.40;99.90
20139;DHT22;10230;51.502;10.800;2023-04-10T01:34:59;6.40;99.90
20139;DHT22;10230;51.502;10.800;2023-04-10T01:37:30;6.40;99.90
20139;DHT22;10230;51.502;10.800;2023-04-10T01:40:02;6.40;99.90
20139;DHT22;10230;51.502;10.800;2023-04-10T01:42:33;6.40;99.90
20139;DHT22;10230;51.502;10.800;2023-04-10T01:45:00;6.30;99.90
20139;DHT22;10230;51.502;10.800;2023-04-10T01:47:26;6.30;99.90
20139;DHT22;10230;51.502;10.800;2023-04-10T01:49:53;6.30;99.90
20139;DHT22;10230;51.502;10.800;2023-04-10T01:52:20;6.20;99.90
20139;DHT22;10230;51.502;10.800;2023-04-10T01:54:48;6.20;99.90
20139;DHT22;10230;51.502;10.800;2023-04-10T01:57:15;6.20;99.90
20139;DHT22;10230;51.502;10.800;2023-04-10T01:59:41;6.10;99.90
20139;DHT22;10230;51.502;10.800;2023-04-10T02:02:07;6.10;99.90
20139;DHT22;10230;51.502;10.800;2023-04-10T02:04:37;6.10;99.90
20139;DHT22;10230;51.502;10.800;2023-04-10T02:07:06;6.10;99.90
20139;DHT22;10230;51.502;10.800;2023-04-10T02:12:25;6.00;99.90
20139;DHT22;10230;51.502;10.800;2023-04-10T02:14:55;6.00;99.90
20139;DHT22;10230;51.502;10.800;2023-04-10T02:17:25;6.00;99.90
20139;DHT22;10230;51.502;10.800;2023-04-10T02:19:54;5.90;99.90
20139;DHT22;10230;51.502;10.800;2023-04-10T02:22:22;5.90;99.90
20139;DHT22;10230;51.502;10.800;2023-04-10T02:24:52;5.90;99.90
20139;DHT22;10230;51.502;10.800;2023-04-10T02:27:31;5.90;99.90
20139;DHT22;10230;51.502;10.800;2023-04-10T02:29:57;5.90;99.90
20139;DHT22;10230;51.502;10.800;2023-04-10T02:32:26;5.80;99.90
20139;DHT22;10230;51.502;10.800;2023-04-10T02:34:52;5.80;99.90
20139;DHT22;10230;51.502;10.800;2023-04-10T02:37:18;5.80;99.90
20139;DHT22;10230;51.502;10.800;2023-04-10T02:39:45;5.80;99.90
20139;DHT22;10230;51.502;10.800;2023-04-10T02:42:10;5.80;99.90
20139;DHT22;10230;51.502;10.800;2023-04-10T02:44:36;5.80;99.90
20139;DHT22;10230;51.502;10.800;2023-04-10T02:47:04;5.80;99.90
20139;DHT22;10230;51.502;10.800;2023-04-10T02:49:30;5.80;99.90
20139;DHT22;10230;51.502;10.800;2023-04-10T02:51:56;5.80;99.90
20139;DHT22;10230;51.502;10.800;2023-04-10T02:54:21;5.80;99.90
20139;DHT22;10230;51.502;10.800;2023-04-10T02:56:47;5.70;99.90
20139;DHT22;10230;51.502;10.800;2023-04-10T02:59:13;5.70;99.90
20139;DHT22;10230;51.502;10.800;2023-04-10T03:01:39;5.70;99.90
20139;DHT22;10230;51.502;10.800;2023-04-10T03:04:05;5.70;99.90
20139;DHT22;10230;51.502;10.800;2023-04-10T03:06:31;5.70;99.90
20139;DHT22;10230;51.502;10.800;2023-04-10T03:08:57;5.70;99.90
20139;DHT22;10230;51.502;10.800;2023-04-10T03:11:22;5.60;99.90
20139;DHT22;10230;51.502;10.800;2023-04-10T03:13:49;5.60;99.90
20139;DHT22;10230;51.502;10.800;2023-04-10T03:16:15;5.60;99.90
20139;DHT22;10230;51.502;10.800;2023-04-10T03:18:45;5.60;99.90
20139;DHT22;10230;51.502;10.800;2023-04-10T03:21:11;5.60;99.90
20139;DHT22;10230;51.502;10.800;2023-04-10T03:23:37;5.50;99.90
20139;DHT22;10230;51.502;10.800;2023-04-10T03:26:02;5.50;99.90
20139;DHT22;10230;51.502;10.800;2023-04-10T03:28:29;5.50;99.90
20139;DHT22;10230;51.502;10.800;2023-04-10T03:30:55;5.50;99.90
20139;DHT22;10230;51.502;10.800;2023-04-10T03:33:21;5.50;99.90
20139;DHT22;10230;51.502;10.800;2023-04-10T03:35:46;5.50;99.90
20139;DHT22;10230;51.502;10.800;2023-04-10T03:38:12;5.50;99.90
20139;DHT22;10230;51.502;10.800;2023-04-10T03:40:38;5.50;99.90
20139;DHT22;10230;51.502;10.800;2023-04-10T03:43:04;5.50;99.90
20139;DHT22;10230;51.502;10.800;2023-04-10T03:45:30;5.50;99.90
20139;DHT22;10230;51.502;10.800;2023-04-10T03:47:55;5.50;99.90
20139;DHT22;10230;51.502;10.800;2023-04-10T03:50:21;5.50;99.90
20139;DHT22;10230;51.502;10.800;2023-04-10T03:52:47;5.50;99.90
20139;DHT22;10230;51.502;10.800;2023-04-10T03:55:14;5.40;99.90
20139;DHT22;10230;51.502;10.800;2023-04-10T03:57:44;5.40;99.90
20139;DHT22;10230;51.502;10.800;2023-04-10T04:00:11;5.40;99.90
20139;DHT22;10230;51.502;10.800;2023-04-10T04:02:37;5.40;99.90
20139;DHT22;10230;51.502;10.800;2023-04-10T04:05:03;5.40;99.90
20139;DHT22;10230;51.502;10.800;2023-04-10T04:07:28;5.40;99.90
20139;DHT22;10230;51.502;10.800;2023-04-10T04:09:54;5.40;99.90
20139;DHT22;10230;51.502;10.800;2023-04-10T04:12:20;5.40;99.90
20139;DHT22;10230;51.502;10.800;2023-04-10T04:14:45;5.30;99.90
20139;DHT22;10230;51.502;10.800;2023-04-10T04:17:11;5.30;99.90
20139;DHT22;10230;51.502;10.800;2023-04-10T04:19:37;5.30;99.90
20139;DHT22;10230;51.502;10.800;2023-04-10T04:22:02;5.20;99.90
20139;DHT22;10230;51.502;10.800;2023-04-10T04:24:28;5.20;99.90
20139;DHT22;10230;51.502;10.800;2023-04-10T04:26:54;5.20;99.90
20139;DHT22;10230;51.502;10.800;2023-04-10T04:29:21;5.20;99.90
20139;DHT22;10230;51.502;10.800;2023-04-10T04:31:46;5.10;99.90
20139;DHT22;10230;51.502;10.800;2023-04-10T04:34:12;5.10;99.90
20139;DHT22;10230;51.502;10.800;2023-04-10T04:36:38;5.10;99.90
20139;DHT22;10230;51.502;10.800;2023-04-10T04:39:03;5.00;99.90
20139;DHT22;10230;51.502;10.800;2023-04-10T04:41:29;5.00;99.90
20139;DHT22;10230;51.502;10.800;2023-04-10T04:43:57;5.00;99.90
20139;DHT22;10230;51.502;10.800;2023-04-10T04:46:23;5.00;99.90
20139;DHT22;10230;51.502;10.800;2023-04-10T04:48:48;5.00;99.90
20139;DHT22;10230;51.502;10.800;2023-04-10T04:51:14;5.00;99.90
20139;DHT22;10230;51.502;10.800;2023-04-10T04:53:40;5.00;99.90
20139;DHT22;10230;51.502;10.800;2023-04-10T04:56:05;5.00;99.90
20139;DHT22;10230;51.502;10.800;2023-04-10T04:58:31;5.10;99.90
20139;DHT22;10230;51.502;10.800;2023-04-10T05:00:57;5.10;99.90
20139;DHT22;10230;51.502;10.800;2023-04-10T05:03:23;5.10;99.90
20139;DHT22;10230;51.502;10.800;2023-04-10T05:05:49;5.10;99.90
20139;DHT22;10230;51.502;10.800;2023-04-10T05:08:15;5.20;99.90
20139;DHT22;10230;51.502;10.800;2023-04-10T05:10:40;5.20;99.90
20139;DHT22;10230;51.502;10.800;2023-04-10T05:13:06;5.30;99.90
20139;DHT22;10230;51.502;10.800;2023-04-10T05:15:32;5.30;99.90
20139;DHT22;10230;51.502;10.800;2023-04-10T05:18:00;5.40;99.90
20139;DHT22;10230;51.502;10.800;2023-04-10T05:20:26;5.50;99.90
20139;DHT22;10230;51.502;10.800;2023-04-10T05:22:53;5.60;99.90
20139;DHT22;10230;51.502;10.800;2023-04-10T05:25:18;5.70;99.90
20139;DHT22;10230;51.502;10.800;2023-04-10T05:27:44;5.70;99.90
20139;DHT22;10230;51.502;10.800;2023-04-10T05:30:10;5.80;99.90
20139;DHT22;10230;51.502;10.800;2023-04-10T05:32:36;5.90;99.90
20139;DHT22;10230;51.502;10.800;2023-04-10T05:35:02;6.00;99.90
20139;DHT22;10230;51.502;10.800;2023-04-10T05:37:28;6.10;99.90
20139;DHT22;10230;51.502;10.800;2023-04-10T05:39:53;6.20;99.90
20139;DHT22;10230;51.502;10.800;2023-04-10T05:42:19;6.20;99.90
20139;DHT22;10230;51.502;10.800;2023-04-10T05:44:44;6.30;99.90
20139;DHT22;10230;51.502;10.800;2023-04-10T05:47:10;6.40;99.90
20139;DHT22;10230;51.502;10.800;2023-04-10T05:49:36;6.50;99.90
20139;DHT22;10230;51.502;10.800;2023-04-10T05:52:01;6.60;99.90
20139;DHT22;10230;51.502;10.800;2023-04-10T05:54:27;6.70;99.90
20139;DHT22;10230;51.502;10.800;2023-04-10T05:56:52;6.90;99.90
20139;DHT22;10230;51.502;10.800;2023-04-10T05:59:18;7.00;99.90
20139;DHT22;10230;51.502;10.800;2023-04-10T06:01:44;7.10;99.90
20139;DHT22;10230;51.502;10.800;2023-04-10T06:04:11;7.30;99.90
20139;DHT22;10230;51.502;10.800;2023-04-10T06:06:37;7.50;99.90
20139;DHT22;10230;51.502;10.800;2023-04-10T06:09:03;7.60;99.90
20139;DHT22;10230;51.502;10.800;2023-04-10T06:11:29;7.80;99.90
20139;DHT22;10230;51.502;10.800;2023-04-10T06:13:55;7.90;99.90
20139;DHT22;10230;51.502;10.800;2023-04-10T06:16:20;8.10;99.90
20139;DHT22;10230;51.502;10.800;2023-04-10T06:18:46;8.20;99.90
20139;DHT22;10230;51.502;10.800;2023-04-10T06:21:12;8.30;99.90
20139;DHT22;10230;51.502;10.800;2023-04-10T06:23:38;8.40;99.90
20139;DHT22;10230;51.502;10.800;2023-04-10T06:26:03;8.60;99.90
20139;DHT22;10230;51.502;10.800;2023-04-10T06:28:29;8.70;99.90
20139;DHT22;10230;51.502;10.800;2023-04-10T06:30:55;8.90;99.90
20139;DHT22;10230;51.502;10.800;2023-04-10T06:33:21;9.00;99.90
20139;DHT22;10230;51.502;10.800;2023-04-10T06:35:47;9.10;99.90
20139;DHT22;10230;51.502;10.800;2023-04-10T06:40:40;9.40;99.90
20139;DHT22;10230;51.502;10.800;2023-04-10T06:43:05;9.50;99.90
20139;DHT22;10230;51.502;10.800;2023-04-10T06:45:31;9.70;99.90
20139;DHT22;10230;51.502;10.800;2023-04-10T06:47:56;9.90;99.90
20139;DHT22;10230;51.502;10.800;2023-04-10T06:50:22;10.20;99.90
20139;DHT22;10230;51.502;10.800;2023-04-10T06:52:48;10.40;99.90
20139;DHT22;10230;51.502;10.800;2023-04-10T06:55:13;10.50;99.90
20139;DHT22;10230;51.502;10.800;2023-04-10T06:57:39;10.70;99.90
20139;DHT22;10230;51.502;10.800;2023-04-10T07:00:06;10.90;99.90
20139;DHT22;10230;51.502;10.800;2023-04-10T07:02:32;11.10;99.90
20139;DHT22;10230;51.502;10.800;2023-04-10T07:22:00;12.80;99.90
20139;DHT22;10230;51.502;10.800;2023-04-10T07:24:26;13.00;99.90
20139;DHT22;10230;51.502;10.800;2023-04-10T07:26:52;13.20;99.90
20139;DHT22;10230;51.502;10.800;2023-04-10T07:29:18;13.30;99.90
20139;DHT22;10230;51.502;10.800;2023-04-10T07:31:44;13.40;99.90
20139;DHT22;10230;51.502;10.800;2023-04-10T07:34:11;13.50;99.90
20139;DHT22;10230;51.502;10.800;2023-04-10T07:36:36;13.60;99.90
20139;DHT22;10230;51.502;10.800;2023-04-10T07:39:02;13.70;99.90
20139;DHT22;10230;51.502;10.800;2023-04-10T07:41:28;13.80;99.90
20139;DHT22;10230;51.502;10.800;2023-04-10T07:43:54;13.90;99.90
20139;DHT22;10230;51.502;10.800;2023-04-10T07:46:19;13.90;99.90
20139;DHT22;10230;51.502;10.800;2023-04-10T07:48:45;14.00;99.90
20139;DHT22;10230;51.502;10.800;2023-04-10T07:51:14;14.20;99.90
20139;DHT22;10230;51.502;10.800;2023-04-10T07:53:40;14.40;99.90
20139;DHT22;10230;51.502;10.800;2023-04-10T07:56:06;14.70;99.90
20139;DHT22;10230;51.502;10.800;2023-04-10T07:58:32;15.10;99.90
20139;DHT22;10230;51.502;10.800;2023-04-10T08:00:58;14.90;99.90
20139;DHT22;10230;51.502;10.800;2023-04-10T08:03:24;15.10;99.90
20139;DHT22;10230;51.502;10.800;2023-04-10T08:32:37;29.50;55.80
20139;DHT22;10230;51.502;10.800;2023-04-10T08:49:53;35.60;38.30
20139;DHT22;10230;51.502;10.800;2023-04-10T08:57:16;37.70;35.30
20139;DHT22;10230;51.502;10.800;2023-04-10T09:37:20;44.40;25.10
20139;DHT22;10230;51.502;10.800;2023-04-10T10:09:33;38.80;24.10
20139;DHT22;10230;51.502;10.800;2023-04-10T10:12:00;37.40;25.70
20139;DHT22;10230;51.502;10.800;2023-04-10T10:14:27;37.10;34.30
20139;DHT22;10230;51.502;10.800;2023-04-10T10:16:55;37.40;34.10
20139;DHT22;10230;51.502;10.800;2023-04-10T10:19:40;38.00;32.50
20139;DHT22;10230;51.502;10.800;2023-04-10T10:22:07;37.70;32.80
20139;DHT22;10230;51.502;10.800;2023-04-10T10:24:35;37.80;33.60
20139;DHT22;10230;51.502;10.800;2023-04-10T10:27:26;38.00;32.70
20139;DHT22;10230;51.502;10.800;2023-04-10T10:32:20;38.20;47.40
20139;DHT22;10230;51.502;10.800;2023-04-10T10:34:48;38.20;30.90
20139;DHT22;10230;51.502;10.800;2023-04-10T10:37:27;38.60;30.00
20139;DHT22;10230;51.502;10.800;2023-04-10T10:40:16;38.10;30.10
20139;DHT22;10230;51.502;10.800;2023-04-10T10:47:53;36.60;25.30
20139;DHT22;10230;51.502;10.800;2023-04-10T10:50:19;36.30;31.20
20139;DHT22;10230;51.502;10.800;2023-04-10T10:52:51;36.70;26.50
20139;DHT22;10230;51.502;10.800;2023-04-10T11:00:15;35.80;41.20
20139;DHT22;10230;51.502;10.800;2023-04-10T11:11:25;33.90;44.60
20139;DHT22;10230;51.502;10.800;2023-04-10T11:21:17;32.70;56.60
20139;DHT22;10230;51.502;10.800;2023-04-10T11:31:53;31.90;78.40
20139;DHT22;10230;51.502;10.800;2023-04-10T11:34:19;31.50;56.10
20139;DHT22;10230;51.502;10.800;2023-04-10T11:36:46;31.10;53.40
20139;DHT22;10230;51.502;10.800;2023-04-10T11:39:16;30.70;56.60
20139;DHT22;10230;51.502;10.800;2023-04-10T14:14:53;18.60;50.70
20139;DHT22;10230;51.502;10.800;2023-04-10T14:17:20;18.40;51.80
20139;DHT22;10230;51.502;10.800;2023-04-10T14:19:46;18.40;51.20
20139;DHT22;10230;51.502;10.800;2023-04-10T14:22:16;18.50;51.70
20139;DHT22;10230;51.502;10.800;2023-04-10T14:24:41;18.40;51.50
20139;DHT22;10230;51.502;10.800;2023-04-10T14:27:07;18.40;51.40
20139;DHT22;10230;51.502;10.800;2023-04-10T14:29:33;18.30;51.70
20139;DHT22;10230;51.502;10.800;2023-04-10T14:31:58;18.20;52.00
20139;DHT22;10230;51.502;10.800;2023-04-10T14:34:24;18.20;52.60
20139;DHT22;10230;51.502;10.800;2023-04-10T14:36:50;18.20;51.70
20139;DHT22;10230;51.502;10.800;2023-04-10T14:39:23;18.10;51.00
20139;DHT22;10230;51.502;10.800;2023-04-10T14:41:49;18.10;51.00
20139;DHT22;10230;51.502;10.800;2023-04-10T14:44:16;18.10;50.90
20139;DHT22;10230;51.502;10.800;2023-04-10T14:46:41;18.10;51.00
20139;DHT22;10230;51.502;10.800;2023-04-10T14:49:07;18.20;51.20
20139;DHT22;10230;51.502;10.800;2023-04-10T14:51:33;18.20;50.70
20139;DHT22;10230;51.502;10.800;2023-04-10T14:53:58;18.20;50.00
20139;DHT22;10230;51.502;10.800;2023-04-10T14:56:24;18.20;49.60
20139;DHT22;10230;51.502;10.800;2023-04-10T14:58:50;18.30;48.90
20139;DHT22;10230;51.502;10.800;2023-04-10T15:01:16;18.20;48.80
20139;DHT22;10230;51.502;10.800;2023-04-10T15:03:44;18.20;49.40
20139;DHT22;10230;51.502;10.800;2023-04-10T15:06:13;18.20;49.70
20139;DHT22;10230;51.502;10.800;2023-04-10T15:08:39;18.10;50.10
20139;DHT22;10230;51.502;10.800;2023-04-10T15:11:04;18.10;50.80
20139;DHT22;10230;51.502;10.800;2023-04-10T15:13:30;18.10;50.90
20139;DHT22;10230;51.502;10.800;2023-04-10T15:15:56;18.20;50.40
20139;DHT22;10230;51.502;10.800;2023-04-10T15:18:22;18.20;50.10
20139;DHT22;10230;51.502;10.800;2023-04-10T15:20:49;18.20;50.60
20139;DHT22;10230;51.502;10.800;2023-04-10T15:23:17;18.10;50.90
20139;DHT22;10230;51.502;10.800;2023-04-10T15:25:42;18.10;50.50
20139;DHT22;10230;51.502;10.800;2023-04-10T15:28:08;18.20;50.90
20139;DHT22;10230;51.502;10.800;2023-04-10T15:30:34;18.30;51.20
20139;DHT22;10230;51.502;10.800;2023-04-10T15:33:00;18.30;51.30
20139;DHT22;10230;51.502;10.800;2023-04-10T15:35:25;18.30;50.90
20139;DHT22;10230;51.502;10.800;2023-04-10T15:37:55;18.30;51.20
20139;DHT22;10230;51.502;10.800;2023-04-10T15:40:21;18.30;51.20
20139;DHT22;10230;51.502;10.800;2023-04-10T15:42:47;18.20;51.70
20139;DHT22;10230;51.502;10.800;2023-04-10T15:45:12;18.10;51.70
20139;DHT22;10230;51.502;10.800;2023-04-10T15:47:38;18.10;51.90
20139;DHT22;10230;51.502;10.800;2023-04-10T15:50:04;18.10;51.60
20139;DHT22;10230;51.502;10.800;2023-04-10T15:52:30;18.10;51.90
20139;DHT22;10230;51.502;10.800;2023-04-10T15:54:58;18.00;52.50
20139;DHT22;10230;51.502;10.800;2023-04-10T16:58:24;16.30;87.10
20139;DHT22;10230;51.502;10.800;2023-04-10T17:25:12;15.90;83.60
20139;DHT22;10230;51.502;10.800;2023-04-10T17:27:37;15.80;90.00
20139;DHT22;10230;51.502;10.800;2023-04-10T17:32:29;15.70;81.70
20139;DHT22;10230;51.502;10.800;2023-04-10T17:34:55;15.60;95.80
20139;DHT22;10230;51.502;10.800;2023-04-10T17:47:08;15.20;88.00
20139;DHT22;10230;51.502;10.800;2023-04-10T17:49:33;15.10;88.10
20139;DHT22;10230;51.502;10.800;2023-04-10T17:51:59;15.10;92.50
20139;DHT22;10230;51.502;10.800;2023-04-10T18:04:09;14.60;89.60
20139;DHT22;10230;51.502;10.800;2023-04-10T18:06:35;14.60;90.40
20139;DHT22;10230;51.502;10.800;2023-04-10T18:11:27;14.50;90.50
20139;DHT22;10230;51.502;10.800;2023-04-10T18:13:52;14.50;91.40
20139;DHT22;10230;51.502;10.800;2023-04-10T18:16:18;14.40;91.90
20139;DHT22;10230;51.502;10.800;2023-04-10T18:18:44;14.40;91.40
20139;DHT22;10230;51.502;10.800;2023-04-10T18:21:09;14.40;91.30
20139;DHT22;10230;51.502;10.800;2023-04-10T18:23:35;14.40;91.60
20139;DHT22;10230;51.502;10.800;2023-04-10T18:26:02;14.40;91.90
20139;DHT22;10230;51.502;10.800;2023-04-10T18:28:28;14.30;92.00
20139;DHT22;10230;51.502;10.800;2023-04-10T18:30:54;14.30;92.30
20139;DHT22;10230;51.502;10.800;2023-04-10T18:33:21;14.30;92.60
20139;DHT22;10230;51.502;10.800;2023-04-10T18:35:55;14.30;92.90
20139;DHT22;10230;51.502;10.800;2023-04-10T18:38:23;14.30;93.40
20139;DHT22;10230;51.502;10.800;2023-04-10T18:40:49;14.20;93.90
20139;DHT22;10230;51.502;10.800;2023-04-10T18:43:15;14.20;94.40
20139;DHT22;10230;51.502;10.800;2023-04-10T18:45:40;14.20;95.00
20139;DHT22;10230;51.502;10.800;2023-04-10T18:48:07;14.20;95.90
20139;DHT22;10230;51.502;10.800;2023-04-10T18:50:35;14.20;98.60
20139;DHT22;10230;51.502;10.800;2023-04-10T18:53:02;14.10;98.90
20139;DHT22;10230;51.502;10.800;2023-04-10T18:55:28;14.10;99.90
20139;DHT22;10230;51.502;10.800;2023-04-10T18:57:54;14.10;99.90
20139;DHT22;10230;51.502;10.800;2023-04-10T19:00:20;14.10;99.90
20139;DHT22;10230;51.502;10.800;2023-04-10T19:02:45;14.20;99.60
20139;DHT22;10230;51.502;10.800;2023-04-10T19:05:11;14.00;99.90
20139;DHT22;10230;51.502;10.800;2023-04-10T19:07:39;14.00;99.90
20139;DHT22;10230;51.502;10.800;2023-04-10T19:10:06;14.00;99.90
20139;DHT22;10230;51.502;10.800;2023-04-10T19:12:36;13.90;99.90
20139;DHT22;10230;51.502;10.800;2023-04-10T19:15:04;13.90;99.90
20139;DHT22;10230;51.502;10.800;2023-04-10T19:17:30;13.80;99.90
20139;DHT22;10230;51.502;10.800;2023-04-10T19:19:56;13.70;99.90
20139;DHT22;10230;51.502;10.800;2023-04-10T19:22:22;13.70;99.90
20139;DHT22;10230;51.502;10.800;2023-04-10T19:24:48;13.60;99.90
20139;DHT22;10230;51.502;10.800;2023-04-10T19:27:13;13.70;99.90
20139;DHT22;10230;51.502;10.800;2023-04-10T19:29:39;13.50;99.90
20139;DHT22;10230;51.502;10.800;2023-04-10T19:32:05;13.50;99.90
20139;DHT22;10230;51.502;10.800;2023-04-10T19:34:30;13.30;99.90
20139;DHT22;10230;51.502;10.800;2023-04-10T19:36:57;13.30;99.30
20139;DHT22;10230;51.502;10.800;2023-04-10T19:39:22;13.30;99.10
20139;DHT22;10230;51.502;10.800;2023-04-10T19:41:48;13.20;99.80
20139;DHT22;10230;51.502;10.800;2023-04-10T19:44:14;13.20;99.70
20139;DHT22;10230;51.502;10.800;2023-04-10T19:46:39;13.20;99.90
20139;DHT22;10230;51.502;10.800;2023-04-10T19:49:05;13.20;99.90
20139;DHT22;10230;51.502;10.800;2023-04-10T19:51:31;13.10;99.90
20139;DHT22;10230;51.502;10.800;2023-04-10T19:53:56;13.10;99.90
20139;DHT22;10230;51.502;10.800;2023-04-10T19:56:23;13.10;99.90
20139;DHT22;10230;51.502;10.800;2023-04-10T19:58:49;13.10;99.90
20139;DHT22;10230;51.502;10.800;2023-04-10T20:01:14;13.10;99.90
20139;DHT22;10230;51.502;10.800;2023-04-10T20:03:40;13.10;99.90
20139;DHT22;10230;51.502;10.800;2023-04-10T20:06:06;13.10;99.90
20139;DHT22;10230;51.502;10.800;2023-04-10T20:08:32;13.10;99.90
20139;DHT22;10230;51.502;10.800;2023-04-10T20:10:58;13.10;99.90
20139;DHT22;10230;51.502;10.800;2023-04-10T20:13:24;13.10;99.90
20139;DHT22;10230;51.502;10.800;2023-04-10T20:15:50;13.10;99.90
20139;DHT22;10230;51.502;10.800;2023-04-10T20:18:16;13.10;99.90
20139;DHT22;10230;51.502;10.800;2023-04-10T20:20:44;13.10;99.90
20139;DHT22;10230;51.502;10.800;2023-04-10T20:23:11;13.00;99.90
20139;DHT22;10230;51.502;10.800;2023-04-10T20:25:37;13.00;99.90
20139;DHT22;10230;51.502;10.800;2023-04-10T20:28:03;13.00;99.90
20139;DHT22;10230;51.502;10.800;2023-04-10T20:30:28;12.90;99.90
20139;DHT22;10230;51.502;10.800;2023-04-10T20:32:54;12.90;99.90
20139;DHT22;10230;51.502;10.800;2023-04-10T20:35:20;12.90;99.90
20139;DHT22;10230;51.502;10.800;2023-04-10T20:37:47;12.90;99.90
20139;DHT22;10230;51.502;10.800;2023-04-10T20:40:12;12.90;99.90
20139;DHT22;10230;51.502;10.800;2023-04-10T20:42:41;12.80;99.90
20139;DHT22;10230;51.502;10.800;2023-04-10T20:45:07;12.80;99.90
20139;DHT22;10230;51.502;10.800;2023-04-10T20:47:32;12.80;99.90
20139;DHT22;10230;51.502;10.800;2023-04-10T20:49:58;12.80;99.90
20139;DHT22;10230;51.502;10.800;2023-04-10T20:52:24;12.80;99.90
20139;DHT22;10230;51.502;10.800;2023-04-10T20:54:49;12.80;99.90
20139;DHT22;10230;51.502;10.800;2023-04-10T20:57:15;12.80;99.90
20139;DHT22;10230;51.502;10.800;2023-04-10T20:59:40;12.80;99.90
20139;DHT22;10230;51.502;10.800;2023-04-10T21:02:06;12.80;99.90
20139;DHT22;10230;51.502;10.800;2023-04-10T21:04:32;12.80;99.90
20139;DHT22;10230;51.502;10.800;2023-04-10T21:06:57;12.80;99.90
20139;DHT22;10230;51.502;10.800;2023-04-10T21:09:23;12.80;99.90
20139;DHT22;10230;51.502;10.800;2023-04-10T21:11:48;12.90;99.90
20139;DHT22;10230;51.502;10.800;2023-04-10T21:14:14;12.90;99.90
20139;DHT22;10230;51.502;10.800;2023-04-10T21:16:40;13.00;99.90
20139;DHT22;10230;51.502;10.800;2023-04-10T21:19:09;13.10;99.90
20139;DHT22;10230;51.502;10.800;2023-04-10T21:21:35;13.10;99.90
20139;DHT22;10230;51.502;10.800;2023-04-10T21:24:01;13.10;99.90
20139;DHT22;10230;51.502;10.800;2023-04-10T21:26:27;13.10;99.90
20139;DHT22;10230;51.502;10.800;2023-04-10T21:28:52;13.10;99.90
20139;DHT22;10230;51.502;10.800;2023-04-10T21:31:18;13.10;99.90
20139;DHT22;10230;51.502;10.800;2023-04-10T21:33:43;13.50;99.90
20139;DHT22;10230;51.502;10.800;2023-04-10T21:36:10;13.10;99.90
20139;DHT22;10230;51.502;10.800;2023-04-10T21:38:36;13.10;99.90
20139;DHT22;10230;51.502;10.800;2023-04-10T21:41:02;13.10;99.90
20139;DHT22;10230;51.502;10.800;2023-04-10T21:43:28;13.10;99.90
20139;DHT22;10230;51.502;10.800;2023-04-10T21:45:53;13.00;99.90
20139;DHT22;10230;51.502;10.800;2023-04-10T21:48:19;13.00;99.90
20139;DHT22;10230;51.502;10.800;2023-04-10T21:50:46;13.00;99.90
20139;DHT22;10230;51.502;10.800;2023-04-10T21:53:12;12.90;99.90
20139;DHT22;10230;51.502;10.800;2023-04-10T21:55:37;12.90;99.90
20139;DHT22;10230;51.502;10.800;2023-04-10T21:58:03;12.90;99.90
20139;DHT22;10230;51.502;10.800;2023-04-10T22:00:29;12.80;99.90
20139;DHT22;10230;51.502;10.800;2023-04-10T22:02:55;12.80;99.90
20139;DHT22;10230;51.502;10.800;2023-04-10T22:05:20;12.70;99.90
20139;DHT22;10230;51.502;10.800;2023-04-10T22:07:48;12.70;99.90
20139;DHT22;10230;51.502;10.800;2023-04-10T22:10:14;12.70;99.90
20139;DHT22;10230;51.502;10.800;2023-04-10T22:12:39;12.60;99.90
20139;DHT22;10230;51.502;10.800;2023-04-10T22:15:06;12.60;99.90
20139;DHT22;10230;51.502;10.800;2023-04-10T22:17:32;12.60;99.90
20139;DHT22;10230;51.502;10.800;2023-04-10T22:19:58;12.60;99.90
20139;DHT22;10230;51.502;10.800;2023-04-10T22:22:23;12.60;99.90
20139;DHT22;10230;51.502;10.800;2023-04-10T22:24:49;12.60;99.90
20139;DHT22;10230;51.502;10.800;2023-04-10T22:27:15;12.70;99.90
20139;DHT22;10230;51.502;10.800;2023-04-10T22:29:41;12.60;99.90
20139;DHT22;10230;51.502;10.800;2023-04-10T22:32:07;11.70;99.90
20139;DHT22;10230;51.502;10.800;2023-04-10T22:39:25;10.90;99.90
20139;DHT22;10230;51.502;10.800;2023-04-10T22:41:50;11.10;99.90
20139;DHT22;10230;51.502;10.800;2023-04-10T22:44:16;11.00;99.90
20139;DHT22;10230;51.502;10.800;2023-04-10T22:46:42;11.00;99.90
20139;DHT22;10230;51.502;10.800;2023-04-10T22:49:07;11.10;99.90
20139;DHT22;10230;51.502;10.800;2023-04-10T22:51:33;11.20;99.90
20139;DHT22;10230;51.502;10.800;2023-04-10T22:53:59;11.30;99.90
20139;DHT22;10230;51.502;10.800;2023-04-10T22:56:24;11.50;99.90